Time;durP1;ratioP1;P1;durP2;ratioP2;P2;SDS_P1;SDS_P2;PMS_P1;PMS_P2;Temp;Humidity;BMP_temperature;BMP_pressure;BME280_temperature;BME280_humidity;BME280_pressure;Samples;Min_cycle;Max_cycle;Signal;HPM_P1;HPM_P2
2023/09/28 00:01:16;;;;;;;3.65;3.35;;;;;;;;;;5021689;28;20043;-72
2023/09/28 00:03:41;;;;;;;5.55;4.47;;;;;;;;;;5032252;28;20045;-72
2023/09/28 00:06:07;;;;;;;3.90;3.28;;;;;;;;;;5041390;28;20037;-72
2023/09/28 00:08:32;;;;;;;6.70;4.70;;;;;;;;;;5040550;28;20092;-72
2023/09/28 00:10:58;;;;;;;6.32;4.47;;;;;;;;;;5033747;28;20041;-72
2023/09/28 00:13:24;;;;;;;5.75;4.82;;;;;;;;;;5035172;28;20035;-72
2023/09/28 00:15:49;;;;;;;8.50;5.22;;;;;;;;;;5024458;28;20033;-72
2023/09/28 00:18:15;;;;;;;6.45;4.95;;;;;;;;;;5037483;28;20045;-72
2023/09/28 00:20:40;;;;;;;5.13;3.80;;;;;;;;;;5031492;28;20539;-72
2023/09/28 00:23:05;;;;;;;4.65;4.00;;;;;;;;;;5032876;28;20108;-72
2023/09/28 00:25:31;;;;;;;5.25;4.55;;;;;;;;;;5030060;28;20048;-72
2023/09/28 00:27:57;;;;;;;7.85;5.28;;;;;;;;;;5019485;28;20086;-72
2023/09/28 00:30:26;;;;;;;5.13;4.40;;;;;;;;;;5019586;28;20046;-72
2023/09/28 00:32:55;;;;;;;3.80;3.50;;;;;;;;;;5035807;28;20075;-72
2023/09/28 00:35:21;;;;;;;4.18;3.55;;;;;;;;;;5035540;28;20035;-72
2023/09/28 00:37:47;;;;;;;3.80;3.42;;;;;;;;;;5035968;28;20040;-72
2023/09/28 00:40:21;;;;;;;4.07;3.50;;;;;;;;;;5033549;28;20037;-72
2023/09/28 00:42:50;;;;;;;3.95;3.55;;;;;;;;;;5025891;28;20032;-72
2023/09/28 00:45:16;;;;;;;4.10;3.63;;;;;;;;;;5038372;28;20509;-72
2023/09/28 00:47:45;;;;;;;4.20;3.80;;;;;;;;;;5028947;28;20088;-72
2023/09/28 00:50:14;;;;;;;4.40;3.80;;;;;;;;;;5029782;28;20618;-72
2023/09/28 00:52:46;;;;;;;3.95;3.47;;;;;;;;;;5036494;28;20721;-72
2023/09/28 00:55:15;;;;;;;5.70;4.65;;;;;;;;;;5022632;28;20040;-72
2023/09/28 00:57:42;;;;;;;6.13;4.65;;;;;;;;;;5035955;28;20037;-72
2023/09/28 01:00:25;;;;;;;4.13;3.72;;;;;;;;;;5021016;28;20135;-72
2023/09/28 01:02:53;;;;;;;5.32;4.00;;;;;;;;;;5028692;28;20541;-72
2023/09/28 01:05:26;;;;;;;4.88;4.25;;;;;;;;;;5032403;28;20036;-72
2023/09/28 01:07:52;;;;;;;7.32;5.65;;;;;;;;;;5007481;28;20045;-72
2023/09/28 01:10:23;;;;;;;8.43;6.22;;;;;;;;;;5037774;28;20044;-72
2023/09/28 01:12:49;;;;;;;7.30;6.20;;;;;;;;;;5026460;28;20426;-72
2023/09/28 01:15:14;;;;;;;5.47;4.38;;;;;;;;;;5027969;28;20118;-72
2023/09/28 01:17:40;;;;;;;5.25;4.30;;;;;;;;;;5040846;28;20493;-72
2023/09/28 01:20:17;;;;;;;5.05;4.55;;;;;;;;;;5020317;28;20049;-72
2023/09/28 01:22:48;;;;;;;4.18;3.78;;;;;;;;;;5039712;28;20124;-72
2023/09/28 01:25:15;;;;;;;3.70;3.40;;;;;;;;;;5032755;28;20037;-72
2023/09/28 01:27:43;;;;;;;3.47;3.17;;;;;;;;;;5024778;28;20422;-72
2023/09/28 01:30:11;;;;;;;5.20;3.50;;;;;;;;;;5020511;28;20037;-72
2023/09/28 01:32:37;;;;;;;4.10;3.70;;;;;;;;;;5001251;28;20037;-72
2023/09/28 01:35:04;;;;;;;3.42;3.10;;;;;;;;;;5011384;28;20116;-73
2023/09/28 01:37:50;;;;;;;3.88;3.47;;;;;;;;;;5015457;28;20049;-73
2023/09/28 01:40:16;;;;;;;4.30;3.58;;;;;;;;;;5005348;28;20082;-73
2023/09/28 01:42:42;;;;;;;4.63;3.50;;;;;;;;;;5010237;28;20383;-74
2023/09/28 01:45:08;;;;;;;6.78;4.55;;;;;;;;;;4999316;28;20040;-74
2023/09/28 01:47:34;;;;;;;5.95;4.65;;;;;;;;;;4996210;28;20565;-73
2023/09/28 01:50:00;;;;;;;6.85;4.75;;;;;;;;;;5008467;28;20068;-73
2023/09/28 01:52:26;;;;;;;5.80;4.57;;;;;;;;;;5016029;28;20033;-73
2023/09/28 01:54:51;;;;;;;4.80;4.20;;;;;;;;;;5008670;28;20030;-73
2023/09/28 01:57:17;;;;;;;4.32;3.65;;;;;;;;;;5014292;28;20096;-72
2023/09/28 01:59:43;;;;;;;6.07;4.78;;;;;;;;;;5006607;28;20478;-73
2023/09/28 02:02:08;;;;;;;3.90;3.40;;;;;;;;;;5013499;28;20087;-73
2023/09/28 02:04:37;;;;;;;4.68;4.00;;;;;;;;;;5018907;28;20087;-73
2023/09/28 02:07:02;;;;;;;6.35;4.53;;;;;;;;;;5009198;28;20037;-73
2023/09/28 02:09:29;;;;;;;5.68;4.80;;;;;;;;;;5006192;28;20033;-73
2023/09/28 02:11:54;;;;;;;5.22;4.00;;;;;;;;;;5002591;28;20065;-73
2023/09/28 02:14:20;;;;;;;4.38;3.67;;;;;;;;;;5013753;28;20064;-73
2023/09/28 02:16:45;;;;;;;6.43;4.18;;;;;;;;;;5014440;28;20042;-74
2023/09/28 02:19:11;;;;;;;4.15;3.75;;;;;;;;;;5013232;28;20517;-73
2023/09/28 02:21:36;;;;;;;5.47;4.45;;;;;;;;;;5013360;28;20048;-73
2023/09/28 02:24:02;;;;;;;4.13;3.40;;;;;;;;;;5013588;28;20037;-72
2023/09/28 02:26:27;;;;;;;6.60;4.75;;;;;;;;;;5008865;28;20030;-73
2023/09/28 02:28:52;;;;;;;4.43;3.92;;;;;;;;;;5017187;28;20095;-73
2023/09/28 02:31:18;;;;;;;3.80;3.50;;;;;;;;;;5015213;28;20541;-73
2023/09/28 02:33:44;;;;;;;4.28;3.72;;;;;;;;;;5019790;28;20040;-73
2023/09/28 02:36:09;;;;;;;3.60;3.30;;;;;;;;;;5019883;28;20041;-73
2023/09/28 02:38:35;;;;;;;4.70;4.07;;;;;;;;;;5016686;28;20042;-73
2023/09/28 02:41:01;;;;;;;5.30;4.30;;;;;;;;;;5007472;28;20091;-73
2023/09/28 02:43:26;;;;;;;8.18;5.95;;;;;;;;;;5014770;28;20042;-73
2023/09/28 02:45:51;;;;;;;6.03;4.43;;;;;;;;;;5014650;28;20041;-73
2023/09/28 02:48:17;;;;;;;5.60;4.63;;;;;;;;;;4997125;28;20036;-72
2023/09/28 02:50:42;;;;;;;5.30;4.30;;;;;;;;;;5001064;28;20091;-72
2023/09/28 02:53:09;;;;;;;10.23;5.93;;;;;;;;;;5016254;28;20038;-72
2023/09/28 02:55:35;;;;;;;4.60;3.55;;;;;;;;;;5005545;28;20040;-73
2023/09/28 02:58:01;;;;;;;6.78;5.22;;;;;;;;;;5020692;28;20052;-74
2023/09/28 03:00:32;;;;;;;5.13;4.22;;;;;;;;;;5035313;28;20397;-73
2023/09/28 03:03:03;;;;;;;10.07;5.82;;;;;;;;;;5035772;28;20491;-73
2023/09/28 03:05:28;;;;;;;3.95;3.00;;;;;;;;;;5031164;28;20049;-73
2023/09/28 03:07:54;;;;;;;6.88;5.07;;;;;;;;;;5025974;28;20066;-73
2023/09/28 03:10:19;;;;;;;4.28;3.47;;;;;;;;;;5033541;28;20108;-73
2023/09/28 03:12:46;;;;;;;3.90;3.50;;;;;;;;;;5008941;28;20572;-73
2023/09/28 03:15:13;;;;;;;5.53;4.63;;;;;;;;;;5022702;28;20048;-73
2023/09/28 03:17:40;;;;;;;4.28;3.20;;;;;;;;;;5025852;28;20119;-73
2023/09/28 03:20:14;;;;;;;6.95;4.35;;;;;;;;;;5022688;28;20642;-73
2023/09/28 03:22:42;;;;;;;5.68;3.00;;;;;;;;;;5021039;28;20041;-74
2023/09/28 03:25:11;;;;;;;3.50;3.10;;;;;;;;;;5030797;28;20087;-74
2023/09/28 03:27:37;;;;;;;3.38;3.08;;;;;;;;;;5011797;28;20116;-73
2023/09/28 03:30:06;;;;;;;8.48;6.50;;;;;;;;;;5042448;28;20183;-73
2023/09/28 03:32:31;;;;;;;4.85;4.35;;;;;;;;;;5034614;28;20119;-73
2023/09/28 03:34:57;;;;;;;6.35;4.38;;;;;;;;;;5024962;28;20095;-73
2023/09/28 03:37:23;;;;;;;7.05;6.28;;;;;;;;;;5030437;28;20053;-73
2023/09/28 03:39:50;;;;;;;9.30;6.80;;;;;;;;;;5033775;28;20036;-72
2023/09/28 03:42:15;;;;;;;7.55;4.90;;;;;;;;;;5010177;28;20041;-73
2023/09/28 03:44:40;;;;;;;5.28;4.65;;;;;;;;;;5024138;28;20397;-73
2023/09/28 03:47:06;;;;;;;3.88;3.53;;;;;;;;;;5028642;28;20041;-72
2023/09/28 03:49:31;;;;;;;5.18;4.68;;;;;;;;;;5020033;28;20048;-73
2023/09/28 03:51:56;;;;;;;8.48;4.57;;;;;;;;;;5028674;28;20044;-73
2023/09/28 03:54:22;;;;;;;5.93;4.65;;;;;;;;;;5020508;28;20098;-73
2023/09/28 03:56:47;;;;;;;10.65;6.50;;;;;;;;;;5030205;28;20041;-73
2023/09/28 03:59:12;;;;;;;7.25;4.90;;;;;;;;;;5016811;28;20051;-73
2023/09/28 04:01:44;;;;;;;3.53;3.22;;;;;;;;;;5015976;28;20037;-73
2023/09/28 04:04:09;;;;;;;3.35;3.05;;;;;;;;;;5026286;28;20462;-73
2023/09/28 04:06:35;;;;;;;4.47;3.22;;;;;;;;;;5038737;28;20040;-73
2023/09/28 04:09:00;;;;;;;3.55;3.25;;;;;;;;;;5037312;28;20041;-73
2023/09/28 04:11:28;;;;;;;6.45;5.18;;;;;;;;;;5038274;28;20045;-73
2023/09/28 04:13:53;;;;;;;5.10;4.53;;;;;;;;;;5028360;28;20048;-73
2023/09/28 04:16:18;;;;;;;5.15;3.83;;;;;;;;;;5034018;28;20025;-73
2023/09/28 04:18:44;;;;;;;4.90;3.78;;;;;;;;;;5019417;28;20041;-73
2023/09/28 04:21:09;;;;;;;6.00;5.07;;;;;;;;;;5036927;28;20162;-73
2023/09/28 04:23:35;;;;;;;6.28;5.57;;;;;;;;;;5037736;28;20028;-72
2023/09/28 04:26:00;;;;;;;9.57;7.32;;;;;;;;;;5034258;28;20477;-72
2023/09/28 04:28:25;;;;;;;10.15;7.18;;;;;;;;;;5011328;28;20048;-72
2023/09/28 04:30:52;;;;;;;5.68;4.70;;;;;;;;;;5031608;28;20041;-72
2023/09/28 04:33:17;;;;;;;5.25;4.45;;;;;;;;;;5023237;28;20064;-72
2023/09/28 04:35:43;;;;;;;9.02;7.05;;;;;;;;;;5031653;28;20037;-73
2023/09/28 04:38:08;;;;;;;10.85;7.13;;;;;;;;;;5037164;28;20559;-72
2023/09/28 04:40:34;;;;;;;7.03;5.00;;;;;;;;;;5017510;28;20047;-72
2023/09/28 04:42:59;;;;;;;4.78;4.28;;;;;;;;;;5012363;28;20068;-72
2023/09/28 04:45:25;;;;;;;5.93;5.28;;;;;;;;;;5009713;28;20037;-72
2023/09/28 04:47:50;;;;;;;4.05;3.65;;;;;;;;;;5016563;28;20042;-72
2023/09/28 04:50:16;;;;;;;7.18;6.15;;;;;;;;;;5016612;28;20044;-72
2023/09/28 04:52:43;;;;;;;10.93;6.95;;;;;;;;;;5026588;28;20087;-72
2023/09/28 04:55:10;;;;;;;6.20;5.32;;;;;;;;;;5031487;28;20052;-73
2023/09/28 04:57:35;;;;;;;11.48;7.65;;;;;;;;;;5032351;28;20033;-72
2023/09/28 05:00:01;;;;;;;3.97;3.50;;;;;;;;;;5018828;28;20040;-73
2023/09/28 05:02:26;;;;;;;10.55;7.45;;;;;;;;;;5014211;28;20156;-72
2023/09/28 05:04:52;;;;;;;6.28;5.22;;;;;;;;;;5019170;28;20029;-73
2023/09/28 05:07:17;;;;;;;7.15;5.80;;;;;;;;;;5025320;28;20036;-73
2023/09/28 05:09:44;;;;;;;5.85;4.65;;;;;;;;;;5021306;28;20049;-72
2023/09/28 05:12:10;;;;;;;9.63;7.60;;;;;;;;;;5038561;28;20036;-71
2023/09/28 05:14:35;;;;;;;4.88;3.92;;;;;;;;;;5025746;28;20032;-71
2023/09/28 05:17:01;;;;;;;6.97;4.68;;;;;;;;;;5034998;28;20040;-71
2023/09/28 05:19:26;;;;;;;6.55;5.07;;;;;;;;;;5037582;28;20044;-72
2023/09/28 05:21:52;;;;;;;4.80;3.97;;;;;;;;;;5032640;28;20671;-72
2023/09/28 05:24:17;;;;;;;7.70;6.15;;;;;;;;;;5034163;28;20086;-72
2023/09/28 05:26:43;;;;;;;7.32;6.07;;;;;;;;;;5032070;28;20156;-72
2023/09/28 05:29:08;;;;;;;8.90;6.53;;;;;;;;;;5005570;28;20041;-72
2023/09/28 05:31:34;;;;;;;7.05;6.25;;;;;;;;;;5023297;28;20044;-72
2023/09/28 05:33:59;;;;;;;6.25;4.43;;;;;;;;;;5005714;28;20057;-72
2023/09/28 05:36:24;;;;;;;13.07;8.15;;;;;;;;;;5030272;28;20033;-72
2023/09/28 05:38:50;;;;;;;11.18;8.48;;;;;;;;;;5031420;28;20033;-72
2023/09/28 05:41:15;;;;;;;7.88;6.80;;;;;;;;;;5031817;28;20433;-72
2023/09/28 05:43:41;;;;;;;4.97;4.25;;;;;;;;;;5008007;28;20025;-72
2023/09/28 05:46:09;;;;;;;4.03;3.60;;;;;;;;;;5017459;28;20072;-72
2023/09/28 05:48:34;;;;;;;9.18;7.25;;;;;;;;;;5029351;28;20091;-72
2023/09/28 05:51:00;;;;;;;4.82;4.03;;;;;;;;;;5028167;28;20549;-72
2023/09/28 05:53:25;;;;;;;8.30;5.85;;;;;;;;;;5023320;28;20585;-72
2023/09/28 05:55:51;;;;;;;6.03;5.40;;;;;;;;;;5035330;28;20398;-72
2023/09/28 05:58:17;;;;;;;7.13;5.93;;;;;;;;;;5020727;28;20076;-72
2023/09/28 06:00:42;;;;;;;11.68;8.85;;;;;;;;;;5031437;28;20668;-72
2023/09/28 06:03:07;;;;;;;14.73;8.50;;;;;;;;;;5037111;28;20048;-72
2023/09/28 06:05:33;;;;;;;5.13;4.20;;;;;;;;;;5040814;28;20037;-72
2023/09/28 06:07:59;;;;;;;6.22;4.70;;;;;;;;;;5037411;28;20029;-72
2023/09/28 06:10:26;;;;;;;7.80;6.72;;;;;;;;;;5030777;28;20149;-72
2023/09/28 06:12:52;;;;;;;4.03;3.58;;;;;;;;;;5021931;28;20284;-72
2023/09/28 06:15:17;;;;;;;4.65;4.03;;;;;;;;;;5032637;28;20523;-72
2023/09/28 06:17:42;;;;;;;3.63;3.30;;;;;;;;;;5035907;28;20037;-72
2023/09/28 06:20:08;;;;;;;4.25;3.85;;;;;;;;;;5036289;28;20513;-72
2023/09/28 06:22:34;;;;;;;5.05;4.55;;;;;;;;;;5039817;28;20106;-72
2023/09/28 06:24:59;;;;;;;4.80;3.65;;;;;;;;;;5033439;28;20033;-72
2023/09/28 06:27:28;;;;;;;6.25;3.60;;;;;;;;;;5030337;28;20056;-72
2023/09/28 06:29:54;;;;;;;4.53;3.65;;;;;;;;;;5036580;28;20044;-72
2023/09/28 06:32:23;;;;;;;6.13;5.53;;;;;;;;;;5036599;28;20059;-72
2023/09/28 06:34:49;;;;;;;5.93;5.32;;;;;;;;;;5038174;28;20056;-72
2023/09/28 06:37:15;;;;;;;3.83;3.42;;;;;;;;;;5040811;28;20053;-72
2023/09/28 06:39:40;;;;;;;8.13;5.75;;;;;;;;;;5029811;28;20082;-72
2023/09/28 06:42:06;;;;;;;4.35;3.85;;;;;;;;;;5038470;28;20047;-72
2023/09/28 06:44:33;;;;;;;4.05;3.65;;;;;;;;;;5033666;28;20115;-72
2023/09/28 06:46:59;;;;;;;10.23;7.72;;;;;;;;;;5035023;28;20508;-72
2023/09/28 06:49:26;;;;;;;5.68;4.32;;;;;;;;;;5038968;28;20036;-72
2023/09/28 06:51:52;;;;;;;13.75;8.10;;;;;;;;;;5037575;28;20060;-72
2023/09/28 06:54:18;;;;;;;6.30;4.80;;;;;;;;;;5025383;28;20108;-72
2023/09/28 06:56:48;;;;;;;12.57;8.98;;;;;;;;;;5013431;28;20036;-72
2023/09/28 06:59:13;;;;;;;5.90;4.45;;;;;;;;;;5030911;28;20131;-72
2023/09/28 07:01:39;;;;;;;8.50;6.32;;;;;;;;;;5025513;28;20597;-72
2023/09/28 07:04:06;;;;;;;10.20;7.45;;;;;;;;;;5019549;28;20740;-72
2023/09/28 07:06:33;;;;;;;14.60;10.10;;;;;;;;;;5013816;28;20041;-72
2023/09/28 07:08:59;;;;;;;4.22;3.83;;;;;;;;;;5024019;28;20033;-72
2023/09/28 07:11:26;;;;;;;12.27;8.68;;;;;;;;;;5015872;28;20056;-72
2023/09/28 07:13:51;;;;;;;6.07;5.18;;;;;;;;;;5023500;28;20075;-72
2023/09/28 07:16:17;;;;;;;4.95;4.07;;;;;;;;;;5016459;28;20037;-72
2023/09/28 07:18:42;;;;;;;5.57;4.47;;;;;;;;;;5016684;28;20044;-72
2023/09/28 07:21:08;;;;;;;11.35;8.18;;;;;;;;;;5003271;28;20108;-72
2023/09/28 07:23:34;;;;;;;7.72;6.18;;;;;;;;;;4999517;28;20030;-72
2023/09/28 07:26:00;;;;;;;5.13;3.75;;;;;;;;;;5008185;28;20433;-72
2023/09/28 07:28:26;;;;;;;4.97;4.15;;;;;;;;;;5015589;28;20545;-72
2023/09/28 07:30:52;;;;;;;6.60;5.18;;;;;;;;;;5014399;28;20065;-72
2023/09/28 07:33:17;;;;;;;11.45;7.82;;;;;;;;;;5021108;28;20051;-72
2023/09/28 07:35:45;;;;;;;13.82;9.00;;;;;;;;;;5010835;28;20040;-72
2023/09/28 07:38:11;;;;;;;11.75;8.88;;;;;;;;;;5013929;28;20069;-72
2023/09/28 07:40:36;;;;;;;5.47;4.07;;;;;;;;;;5014553;28;20069;-72
2023/09/28 07:43:02;;;;;;;8.82;6.85;;;;;;;;;;5015257;28;20763;-72
2023/09/28 07:45:27;;;;;;;9.40;7.45;;;;;;;;;;5010887;28;20048;-72
2023/09/28 07:47:52;;;;;;;17.80;9.90;;;;;;;;;;5015764;28;20041;-72
2023/09/28 07:50:18;;;;;;;18.80;10.32;;;;;;;;;;5002915;28;20184;-72
2023/09/28 07:52:44;;;;;;;11.35;7.95;;;;;;;;;;5018704;28;20065;-72
2023/09/28 07:55:11;;;;;;;11.75;9.15;;;;;;;;;;5011792;28;20540;-72
2023/09/28 07:57:36;;;;;;;10.45;7.10;;;;;;;;;;5012497;28;20057;-72
2023/09/28 08:00:03;;;;;;;10.70;6.78;;;;;;;;;;5013101;28;20068;-72
2023/09/28 08:02:29;;;;;;;8.52;6.63;;;;;;;;;;5022110;28;20049;-72
2023/09/28 08:04:55;;;;;;;11.95;7.35;;;;;;;;;;5028540;28;20049;-72
2023/09/28 08:07:21;;;;;;;14.25;9.80;;;;;;;;;;5040070;28;20031;-72
2023/09/28 08:09:47;;;;;;;14.98;9.75;;;;;;;;;;5036089;28;20071;-72
2023/09/28 08:12:13;;;;;;;7.03;5.97;;;;;;;;;;5035885;28;20072;-72
2023/09/28 08:14:38;;;;;;;21.13;10.40;;;;;;;;;;5033598;28;20084;-72
2023/09/28 08:17:04;;;;;;;15.98;10.85;;;;;;;;;;4986437;28;20499;-72
2023/09/28 08:19:29;;;;;;;14.32;10.50;;;;;;;;;;5015325;28;20491;-72
2023/09/28 08:21:55;;;;;;;12.05;9.65;;;;;;;;;;5015432;28;20116;-72
2023/09/28 08:24:20;;;;;;;10.07;7.00;;;;;;;;;;5020858;28;20029;-72
2023/09/28 08:26:46;;;;;;;18.50;9.80;;;;;;;;;;5012230;28;20037;-72
2023/09/28 08:29:12;;;;;;;19.23;10.90;;;;;;;;;;5017266;28;20084;-72
2023/09/28 08:31:37;;;;;;;19.48;10.75;;;;;;;;;;5010262;28;20094;-72
2023/09/28 08:34:03;;;;;;;10.45;8.05;;;;;;;;;;5033167;28;20045;-72
2023/09/28 08:36:29;;;;;;;19.30;10.88;;;;;;;;;;5034920;28;20052;-72
2023/09/28 08:38:56;;;;;;;18.17;9.98;;;;;;;;;;5033765;28;20517;-72
2023/09/28 08:41:43;;;;;;;10.63;7.60;;;;;;;;;;5028817;28;20048;-72
2023/09/28 08:44:09;;;;;;;12.30;8.73;;;;;;;;;;5020914;28;20037;-72
2023/09/28 08:46:39;;;;;;;12.35;9.05;;;;;;;;;;5034242;28;20064;-72
2023/09/28 08:49:08;;;;;;;15.95;9.90;;;;;;;;;;5036645;28;20147;-72
2023/09/28 08:51:38;;;;;;;15.95;10.23;;;;;;;;;;5039150;28;20045;-72
2023/09/28 08:54:05;;;;;;;13.33;9.37;;;;;;;;;;5030243;28;20044;-72
2023/09/28 08:56:40;;;;;;;13.63;9.02;;;;;;;;;;5022985;28;20048;-72
2023/09/28 08:59:06;;;;;;;17.05;9.15;;;;;;;;;;5016013;28;20052;-72
2023/09/28 09:01:34;;;;;;;5.47;4.63;;;;;;;;;;5034521;28;20497;-72
2023/09/28 09:04:00;;;;;;;14.13;8.85;;;;;;;;;;5032129;28;20064;-72
2023/09/28 09:06:28;;;;;;;10.88;7.35;;;;;;;;;;5029984;28;20064;-72
2023/09/28 09:08:56;;;;;;;13.27;8.40;;;;;;;;;;5016363;28;20038;-72
2023/09/28 09:11:22;;;;;;;13.60;9.30;;;;;;;;;;5006106;28;20044;-72
2023/09/28 09:13:51;;;;;;;10.18;8.18;;;;;;;;;;5029012;28;20125;-72
2023/09/28 09:16:17;;;;;;;12.50;8.52;;;;;;;;;;5028758;28;20383;-72
2023/09/28 09:18:43;;;;;;;10.98;8.73;;;;;;;;;;5031655;28;20048;-72
2023/09/28 09:21:09;;;;;;;14.60;9.13;;;;;;;;;;5029135;28;20037;-72
2023/09/28 09:23:35;;;;;;;10.23;6.80;;;;;;;;;;5001385;28;20033;-72
2023/09/28 09:26:02;;;;;;;7.82;7.00;;;;;;;;;;5017472;28;20037;-72
2023/09/28 09:28:29;;;;;;;13.23;7.85;;;;;;;;;;5014657;28;20045;-72
2023/09/28 09:30:56;;;;;;;8.23;6.13;;;;;;;;;;5009440;28;20037;-72
2023/09/28 09:33:22;;;;;;;12.40;7.50;;;;;;;;;;5014436;28;20117;-72
2023/09/28 09:35:50;;;;;;;9.38;7.88;;;;;;;;;;5011741;28;20048;-72
2023/09/28 09:38:21;;;;;;;9.50;6.82;;;;;;;;;;5001033;28;20697;-72
2023/09/28 09:41:00;;;;;;;7.95;6.15;;;;;;;;;;5018294;28;20557;-72
2023/09/28 09:43:30;;;;;;;7.63;5.55;;;;;;;;;;5023955;28;20065;-72
2023/09/28 09:45:56;;;;;;;5.28;4.43;;;;;;;;;;5023424;28;20042;-72
2023/09/28 09:48:22;;;;;;;5.07;4.20;;;;;;;;;;5020470;28;20037;-72
2023/09/28 09:50:49;;;;;;;8.18;7.38;;;;;;;;;;5011743;28;20033;-72
2023/09/28 09:53:16;;;;;;;9.52;6.75;;;;;;;;;;5020544;28;20069;-72
2023/09/28 09:55:42;;;;;;;9.68;7.25;;;;;;;;;;5008604;28;20053;-72
2023/09/28 09:58:13;;;;;;;9.43;6.30;;;;;;;;;;5035836;28;20043;-72
2023/09/28 10:00:41;;;;;;;8.98;6.88;;;;;;;;;;5037171;28;20525;-72
2023/09/28 10:03:08;;;;;;;4.85;4.28;;;;;;;;;;5012965;28;20061;-72
2023/09/28 10:05:35;;;;;;;5.40;4.90;;;;;;;;;;5009315;28;20034;-72
2023/09/28 10:08:03;;;;;;;4.72;4.28;;;;;;;;;;5028645;28;20042;-72
2023/09/28 10:10:30;;;;;;;7.32;4.72;;;;;;;;;;5022979;28;21048;-72
2023/09/28 10:12:56;;;;;;;7.68;5.57;;;;;;;;;;5016207;28;21628;-72
2023/09/28 10:15:22;;;;;;;5.10;4.35;;;;;;;;;;4997924;28;20041;-72
2023/09/28 10:17:48;;;;;;;10.63;5.22;;;;;;;;;;5029320;28;20025;-72
2023/09/28 10:20:14;;;;;;;4.68;3.83;;;;;;;;;;5032345;28;20537;-72
2023/09/28 10:22:44;;;;;;;8.50;5.07;;;;;;;;;;5029133;28;20117;-72
2023/09/28 10:25:12;;;;;;;5.88;4.68;;;;;;;;;;5034776;28;20037;-72
2023/09/28 10:27:39;;;;;;;6.18;4.68;;;;;;;;;;5039139;28;20525;-72
2023/09/28 10:30:25;;;;;;;7.05;5.38;;;;;;;;;;5027546;28;20040;-72
2023/09/28 10:32:51;;;;;;;5.47;4.97;;;;;;;;;;5033942;28;20041;-72
2023/09/28 10:35:19;;;;;;;7.97;5.10;;;;;;;;;;5032771;28;20064;-72
2023/09/28 10:38:17;;;;;;;7.13;5.22;;;;;;;;;;5035455;28;20040;-72
2023/09/28 10:41:05;;;;;;;5.43;4.47;;;;;;;;;;5032563;28;20029;-72
2023/09/28 10:43:33;;;;;;;4.07;3.67;;;;;;;;;;5040997;28;20041;-72
2023/09/28 10:46:03;;;;;;;4.38;3.90;;;;;;;;;;5032091;28;20033;-72
2023/09/28 10:48:45;;;;;;;4.35;3.95;;;;;;;;;;5033079;28;20064;-72
2023/09/28 10:51:11;;;;;;;4.20;3.80;;;;;;;;;;5024513;28;20125;-72
2023/09/28 10:53:37;;;;;;;4.10;3.67;;;;;;;;;;5031732;28;20066;-72
2023/09/28 10:56:05;;;;;;;4.00;3.20;;;;;;;;;;5019869;28;20041;-72
2023/09/28 10:58:33;;;;;;;4.63;3.85;;;;;;;;;;5029248;28;20052;-72
2023/09/28 11:01:04;;;;;;;6.13;4.32;;;;;;;;;;5020546;28;20061;-72
2023/09/28 11:03:34;;;;;;;6.43;4.15;;;;;;;;;;4999076;28;20041;-72
2023/09/28 11:06:03;;;;;;;4.30;3.90;;;;;;;;;;5015950;28;20030;-72
2023/09/28 11:08:30;;;;;;;3.47;3.17;;;;;;;;;;5022647;28;20073;-72
2023/09/28 11:11:01;;;;;;;4.15;3.75;;;;;;;;;;5014435;28;20472;-72
2023/09/28 11:13:27;;;;;;;;;;;;;;;;;;5016302;28;20069;-72
2023/09/28 11:15:53;;;;;;;4.70;4.20;;;;;;;;;;5008630;28;19952;-72
2023/09/28 11:18:20;;;;;;;3.45;3.15;;;;;;;;;;5011579;28;20463;-72
2023/09/28 11:20:46;;;;;;;6.57;4.78;;;;;;;;;;5020720;28;20107;-72
2023/09/28 11:23:11;;;;;;;4.65;4.10;;;;;;;;;;5007894;28;20545;-72
2023/09/28 11:25:39;;;;;;;6.55;4.32;;;;;;;;;;5018294;28;20044;-72
2023/09/28 11:28:09;;;;;;;5.87;4.43;;;;;;;;;;4977454;28;1127965;-72
2023/09/28 11:30:36;;;;;;;4.00;3.60;;;;;;;;;;5004003;28;20120;-72
2023/09/28 11:33:05;;;;;;;5.63;5.00;;;;;;;;;;5011416;28;20036;-72
2023/09/28 11:35:32;;;;;;;6.57;4.55;;;;;;;;;;5019417;28;20029;-72
2023/09/28 11:37:59;;;;;;;6.18;3.90;;;;;;;;;;5019912;28;20130;-72
2023/09/28 11:40:24;;;;;;;8.40;4.70;;;;;;;;;;5035636;28;20045;-72
2023/09/28 11:42:52;;;;;;;9.38;4.55;;;;;;;;;;5026405;28;20802;-72
2023/09/28 11:45:17;;;;;;;4.55;4.00;;;;;;;;;;5035902;28;20033;-72
2023/09/28 11:47:46;;;;;;;4.88;4.38;;;;;;;;;;5032096;28;20043;-72
2023/09/28 11:50:12;;;;;;;6.93;4.72;;;;;;;;;;5024886;28;20055;-72
2023/09/28 11:52:37;;;;;;;5.93;4.75;;;;;;;;;;5021468;28;20029;-72
2023/09/28 11:55:05;;;;;;;5.05;4.10;;;;;;;;;;5024307;28;20139;-73
2023/09/28 11:57:35;;;;;;;6.00;4.90;;;;;;;;;;5020112;28;20784;-72
2023/09/28 12:00:01;;;;;;;6.40;4.30;;;;;;;;;;5030026;28;20549;-72
2023/09/28 12:02:28;;;;;;;5.38;4.38;;;;;;;;;;5021701;28;20048;-72
2023/09/28 12:04:54;;;;;;;4.20;3.80;;;;;;;;;;5037515;28;20044;-72
2023/09/28 12:07:19;;;;;;;5.80;3.90;;;;;;;;;;5039902;28;20036;-72
2023/09/28 12:09:45;;;;;;;4.88;3.25;;;;;;;;;;5026602;28;20060;-72
2023/09/28 12:12:10;;;;;;;4.32;3.92;;;;;;;;;;5029683;28;20037;-72
2023/09/28 12:14:35;;;;;;;6.30;4.68;;;;;;;;;;5038584;28;20043;-72
2023/09/28 12:17:01;;;;;;;4.60;4.20;;;;;;;;;;5029812;28;20053;-72
2023/09/28 12:19:26;;;;;;;4.95;4.13;;;;;;;;;;5026216;28;20056;-72
2023/09/28 12:21:52;;;;;;;4.22;3.83;;;;;;;;;;5033261;28;20037;-72
2023/09/28 12:24:18;;;;;;;4.68;4.00;;;;;;;;;;5020180;28;20124;-72
2023/09/28 12:26:44;;;;;;;4.43;4.03;;;;;;;;;;5035293;28;20123;-72
2023/09/28 12:29:09;;;;;;;5.60;3.97;;;;;;;;;;5034746;28;20171;-72
2023/09/28 12:31:35;;;;;;;3.22;2.90;;;;;;;;;;5030855;28;20063;-72
2023/09/28 12:34:00;;;;;;;3.30;2.92;;;;;;;;;;5033646;28;20120;-72
2023/09/28 12:36:27;;;;;;;4.35;3.22;;;;;;;;;;5036799;28;20040;-72
2023/09/28 12:38:52;;;;;;;3.60;3.25;;;;;;;;;;5023881;28;20045;-72
2023/09/28 12:41:18;;;;;;;5.88;3.63;;;;;;;;;;5037029;28;20114;-72
2023/09/28 12:43:44;;;;;;;4.32;3.83;;;;;;;;;;5037111;28;20045;-72
2023/09/28 12:46:10;;;;;;;4.32;3.58;;;;;;;;;;5037162;28;20138;-72
2023/09/28 12:48:35;;;;;;;4.72;3.28;;;;;;;;;;5029330;28;20494;-72
2023/09/28 12:51:01;;;;;;;3.42;3.17;;;;;;;;;;5015726;28;20033;-72
2023/09/28 12:53:26;;;;;;;8.00;4.13;;;;;;;;;;5011771;28;20032;-72
2023/09/28 12:55:55;;;;;;;5.07;3.92;;;;;;;;;;5003686;28;20506;-72
2023/09/28 12:58:20;;;;;;;4.57;3.50;;;;;;;;;;5012396;28;20112;-72
2023/09/28 13:00:46;;;;;;;7.55;3.65;;;;;;;;;;5021530;28;20119;-72
2023/09/28 13:03:12;;;;;;;4.10;3.70;;;;;;;;;;5016139;28;20120;-73
2023/09/28 13:05:37;;;;;;;5.00;3.38;;;;;;;;;;5016126;28;20032;-73
2023/09/28 13:08:07;;;;;;;5.55;3.83;;;;;;;;;;4998292;28;20051;-73
2023/09/28 13:10:34;;;;;;;6.13;3.97;;;;;;;;;;5007384;28;20033;-73
2023/09/28 13:13:01;;;;;;;5.97;3.50;;;;;;;;;;5009370;28;20036;-73
2023/09/28 13:15:26;;;;;;;4.72;4.00;;;;;;;;;;5010550;28;20037;-73
2023/09/28 13:17:52;;;;;;;3.65;3.30;;;;;;;;;;5017874;28;20044;-73
2023/09/28 13:20:26;;;;;;;6.15;3.58;;;;;;;;;;5021088;28;20041;-74
2023/09/28 13:22:58;;;;;;;6.25;3.65;;;;;;;;;;5021188;28;20118;-73
2023/09/28 13:25:24;;;;;;;6.45;3.75;;;;;;;;;;5025499;28;20045;-73
2023/09/28 13:27:53;;;;;;;3.78;3.45;;;;;;;;;;5024356;28;20033;-73
2023/09/28 13:30:22;;;;;;;4.30;3.33;;;;;;;;;;5015741;28;20041;-73
2023/09/28 13:32:48;;;;;;;3.80;3.40;;;;;;;;;;5021337;28;20083;-73
2023/09/28 13:35:14;;;;;;;3.35;2.72;;;;;;;;;;4994854;28;20041;-73
2023/09/28 13:37:39;;;;;;;4.55;3.38;;;;;;;;;;5030413;28;20101;-73
2023/09/28 13:40:15;;;;;;;2.42;2.22;;;;;;;;;;5026180;28;20045;-73
2023/09/28 13:42:40;;;;;;;3.20;2.90;;;;;;;;;;5038993;28;20047;-73
2023/09/28 13:45:06;;;;;;;3.60;3.30;;;;;;;;;;5042330;28;20037;-73
2023/09/28 13:47:32;;;;;;;4.05;3.45;;;;;;;;;;4996363;28;20042;-74
2023/09/28 13:49:58;;;;;;;2.95;2.70;;;;;;;;;;5036347;28;20595;-73
2023/09/28 13:52:26;;;;;;;3.08;2.70;;;;;;;;;;5037969;28;20036;-73
2023/09/28 13:54:51;;;;;;;2.70;2.45;;;;;;;;;;5030796;28;20033;-73
2023/09/28 13:57:17;;;;;;;4.18;2.80;;;;;;;;;;5027538;28;20037;-73
2023/09/28 13:59:43;;;;;;;2.90;2.70;;;;;;;;;;5022389;28;20128;-73
2023/09/28 14:02:09;;;;;;;7.07;3.85;;;;;;;;;;5011756;28;20029;-73
2023/09/28 14:04:34;;;;;;;3.88;3.10;;;;;;;;;;5033779;28;20532;-73
2023/09/28 14:07:00;;;;;;;3.40;3.10;;;;;;;;;;5033806;28;20032;-73
2023/09/28 14:09:27;;;;;;;3.45;3.03;;;;;;;;;;5028171;28;20592;-73
2023/09/28 14:11:54;;;;;;;3.42;2.80;;;;;;;;;;5036092;28;20064;-73
2023/09/28 14:14:19;;;;;;;4.97;3.50;;;;;;;;;;5031037;28;20041;-73
2023/09/28 14:16:45;;;;;;;2.90;2.60;;;;;;;;;;5024358;28;20095;-73
2023/09/28 14:19:11;;;;;;;4.20;3.15;;;;;;;;;;5032477;28;20057;-73
2023/09/28 14:21:37;;;;;;;3.75;2.90;;;;;;;;;;5010952;28;20128;-73
2023/09/28 14:24:06;;;;;;;3.22;2.83;;;;;;;;;;5020745;28;20087;-73
2023/09/28 14:26:41;;;;;;;5.28;3.05;;;;;;;;;;5029111;28;20435;-73
2023/09/28 14:29:07;;;;;;;3.30;3.00;;;;;;;;;;5019993;28;20041;-73
2023/09/28 14:31:34;;;;;;;4.28;3.50;;;;;;;;;;5043719;28;20041;-73
2023/09/28 14:34:00;;;;;;;2.90;2.70;;;;;;;;;;5033063;28;20037;-72
2023/09/28 14:36:26;;;;;;;4.72;3.13;;;;;;;;;;5036315;28;20032;-73
2023/09/28 14:38:52;;;;;;;3.08;2.80;;;;;;;;;;5027969;28;20494;-73